Airfield :







YOU CAN JOIN US ON...

 
LOGIN :

Register | Disclaimer

   EN    FR    IT 

 









Legend :    VFR   Marginal VFR   IFR   Intensive IFR   Very Intensive IFR
Visi :
Ceiling :
>= 8 km
>= 3000ft
5 to 8 km
1000 to 3000 ft
1500m to 5 km
500 to 1000 ft
800 to 1500m
200 to 500 ft
< 800m
< 200 ft
Symbols :   Thunderstorms  Fog  Heavy snow  Heavy precipitations  Wind > 20 kt






- Airport Elevation : 266 ft
- IATA code : MHT


KMHT - Manchester

CURRENT METAR :
  • 121853Z 29003KT 10SM FEW060 BKN250 M01/M14 A3063 RMK AO2 SLP392 T10061144

EXPIRED METARs :
  • 121753Z 25008KT 10SM FEW060 SCT250 M01/M14 A3064 RMK AO2 SLP395 T10111144 11011 21061 56013
  • 121653Z 26005KT 10SM FEW060 BKN250 M02/M14 A3065 RMK AO2 SLP398 T10171139
  • 121553Z VRB05KT 10SM FEW045 BKN250 M03/M14 A3066 RMK AO2 SLP403 T10281144

TAF KMHT
Valid from the 12 at 18:00 until the 13 at 18:00 UTC


121723Z 1218/1318 28004KT P6SM FEW250
FM131300 VRB03KT P6SM BKN045



MET'MAP, your aeronautical weather chart ! - Copyright ORBIFLY December 2007 - Disclaimer

ORBIFLY MET'MAP TEAM :

Programming & Development : Alexandra Zaïnal
Concept & original design : Baudouin d'Aumeries
Assistance for programming : Marc-Olivier Méhu
Technical & hardware support : Manuel Goepfert

Contact : metmap@orbifly.com




SOURCES & CREDITS :

   NOAA